createdAt,value
2018-02-05T00:01:10.059Z,13.20
2018-02-05T00:03:36.679Z,13.52
2018-02-05T00:06:03.233Z,12.80
2018-02-05T00:08:30.100Z,13.45
2018-02-05T00:10:56.959Z,13.50
2018-02-05T00:13:23.435Z,12.32
2018-02-05T00:15:49.961Z,12.80
2018-02-05T00:18:16.372Z,14.07
2018-02-05T00:20:43.088Z,14.68
2018-02-05T00:23:09.650Z,15.15
2018-02-05T00:25:36.103Z,13.02
2018-02-05T00:28:02.683Z,11.90
2018-02-05T00:30:29.164Z,13.85
2018-02-05T00:32:55.719Z,14.07
2018-02-05T00:35:22.620Z,14.25
2018-02-05T00:37:49.092Z,17.17
2018-02-05T00:40:15.658Z,17.10
2018-02-05T00:42:42.201Z,16.20
2018-02-05T00:45:08.692Z,14.55
2018-02-05T00:47:35.550Z,17.12
2018-02-05T00:50:02.159Z,16.75
2018-02-05T00:52:29.598Z,16.80
2018-02-05T00:54:56.128Z,16.08
2018-02-05T00:57:22.595Z,17.75
2018-02-05T00:59:49.131Z,18.17
2018-02-05T01:02:15.681Z,17.55
2018-02-05T01:04:42.594Z,18.77
2018-02-05T01:07:09.972Z,18.62
2018-02-05T01:09:36.560Z,16.98
2018-02-05T01:12:03.038Z,19.37
2018-02-05T01:14:29.579Z,17.35
2018-02-05T01:16:56.143Z,17.33
2018-02-05T01:19:22.559Z,17.65
2018-02-05T01:21:49.592Z,22.55
2018-02-05T01:24:16.628Z,20.25
2018-02-05T01:26:43.159Z,18.48
2018-02-05T01:29:09.721Z,17.73
2018-02-05T01:31:36.239Z,21.52
2018-02-05T01:34:02.857Z,18.85
2018-02-05T01:36:29.381Z,19.27
2018-02-05T01:38:55.876Z,21.12
2018-02-05T01:41:22.373Z,17.98
2018-02-05T01:43:48.916Z,21.92
2018-02-05T01:46:15.369Z,20.40
2018-02-05T01:48:42.366Z,18.73
2018-02-05T01:51:08.846Z,21.20
2018-02-05T01:53:35.712Z,20.08
2018-02-05T01:56:02.265Z,18.60
2018-02-05T01:58:28.814Z,18.35
2018-02-05T02:00:55.284Z,19.02
2018-02-05T02:03:21.685Z,18.73
2018-02-05T02:05:48.351Z,16.98
2018-02-05T02:08:14.952Z,19.80
2018-02-05T02:10:41.349Z,19.65
2018-02-05T02:13:08.008Z,17.12
2018-02-05T02:15:34.508Z,17.30
2018-02-05T02:18:01.019Z,17.52
2018-02-05T02:20:27.492Z,18.65
2018-02-05T02:22:54.123Z,17.92
2018-02-05T02:25:20.631Z,18.40
2018-02-05T02:27:47.157Z,21.42
2018-02-05T02:30:13.732Z,16.70
2018-02-05T02:32:40.299Z,18.42
2018-02-05T02:35:06.844Z,18.67
2018-02-05T02:37:33.360Z,23.30
2018-02-05T02:40:00.184Z,18.35
2018-02-05T02:42:26.595Z,16.75
2018-02-05T02:44:53.239Z,18.62
2018-02-05T02:47:19.803Z,17.00
2018-02-05T02:49:46.599Z,18.30
2018-02-05T02:52:13.135Z,22.70
2018-02-05T02:54:39.784Z,21.20
2018-02-05T02:57:06.259Z,18.48
2018-02-05T02:59:32.711Z,19.58
2018-02-05T03:01:59.366Z,19.02
2018-02-05T03:04:25.826Z,18.62
2018-02-05T03:06:52.712Z,20.50
2018-02-05T03:09:19.208Z,21.35
2018-02-05T03:11:45.737Z,22.62
2018-02-05T03:14:12.119Z,19.37
2018-02-05T03:16:38.800Z,21.33
2018-02-05T03:19:05.388Z,22.10
2018-02-05T03:21:31.863Z,19.80
2018-02-05T03:23:58.451Z,24.35
2018-02-05T03:26:24.935Z,21.40
2018-02-05T03:28:51.560Z,19.85
2018-02-05T03:31:18.074Z,18.08
2018-02-05T03:33:44.529Z,20.65
2018-02-05T03:36:11.087Z,23.60
2018-02-05T03:38:37.475Z,23.50
2018-02-05T03:41:04.160Z,22.55
2018-02-05T03:43:30.671Z,22.37
2018-02-05T03:45:57.316Z,23.75
2018-02-05T03:48:23.751Z,21.58
2018-02-05T03:50:50.289Z,24.08
2018-02-05T03:53:16.896Z,24.52
2018-02-05T03:55:43.339Z,23.48
2018-02-05T03:58:09.895Z,19.87
2018-02-05T04:00:36.473Z,20.70
2018-02-05T04:03:03.016Z,22.95
2018-02-05T04:05:29.791Z,21.50
2018-02-05T04:07:56.410Z,23.08
2018-02-05T04:10:22.894Z,19.10
2018-02-05T04:12:49.283Z,18.65
2018-02-05T04:15:16.371Z,22.00
2018-02-05T04:17:42.780Z,23.65
2018-02-05T04:20:09.371Z,21.42
2018-02-05T04:22:36.164Z,23.02
2018-02-05T04:25:02.790Z,21.75
2018-02-05T04:27:29.302Z,27.23
2018-02-05T04:29:55.804Z,21.37
2018-02-05T04:32:22.690Z,26.23
2018-02-05T04:34:49.239Z,26.65
2018-02-05T04:37:16.327Z,27.65
2018-02-05T04:39:42.796Z,23.42
2018-02-05T04:42:09.776Z,25.35
2018-02-05T04:44:36.881Z,24.85
2018-02-05T04:47:03.644Z,22.62
2018-02-05T04:49:30.536Z,25.95
2018-02-05T04:51:57.956Z,22.62
2018-02-05T04:54:24.541Z,25.85
2018-02-05T04:56:50.924Z,22.25
2018-02-05T04:59:17.881Z,23.27
2018-02-05T05:01:46.305Z,25.42
2018-02-05T05:04:12.844Z,26.60
2018-02-05T05:06:39.255Z,23.62
2018-02-05T05:09:05.882Z,26.77
2018-02-05T05:11:32.735Z,28.85
2018-02-05T05:13:59.308Z,25.95
2018-02-05T05:16:25.774Z,24.17
2018-02-05T05:18:52.393Z,27.25
2018-02-05T05:21:18.818Z,23.70
2018-02-05T05:23:45.611Z,26.62
2018-02-05T05:26:12.555Z,26.42
2018-02-05T05:28:39.123Z,29.17
2018-02-05T05:31:05.916Z,27.95
2018-02-05T05:33:32.435Z,27.27
2018-02-05T05:35:58.977Z,35.92
2018-02-05T05:38:25.575Z,36.42
2018-02-05T05:40:52.108Z,29.40
2018-02-05T05:43:18.568Z,30.02
2018-02-05T05:45:45.239Z,34.53
2018-02-05T05:48:11.642Z,34.60
2018-02-05T05:50:38.199Z,29.00
2018-02-05T05:53:04.731Z,31.90
2018-02-05T05:55:31.263Z,30.67
2018-02-05T05:57:57.815Z,31.48
2018-02-05T06:00:24.333Z,32.55
2018-02-05T06:02:50.963Z,33.17
2018-02-05T06:05:17.395Z,32.53
2018-02-05T06:07:43.943Z,30.27
2018-02-05T06:10:10.459Z,28.05
2018-02-05T06:12:37.024Z,29.33
2018-02-05T06:15:03.568Z,27.42
2018-02-05T06:17:30.061Z,25.10
2018-02-05T06:19:56.628Z,24.60
2018-02-05T06:22:23.149Z,22.33
2018-02-05T06:24:49.577Z,26.83
2018-02-05T06:27:16.576Z,24.02
2018-02-05T06:29:43.049Z,24.17
2018-02-05T06:32:09.647Z,27.50
2018-02-05T06:34:36.434Z,27.15
2018-02-05T06:37:03.006Z,26.60
2018-02-05T06:39:29.536Z,27.62
2018-02-05T06:41:56.024Z,27.70
2018-02-05T06:44:22.591Z,27.73
2018-02-05T06:46:49.164Z,27.62
2018-02-05T06:49:15.623Z,23.23
2018-02-05T07:05:11.072Z,24.33
2018-02-05T07:07:38.046Z,22.98
2018-02-05T07:10:05.034Z,28.55
2018-02-05T07:12:31.572Z,26.62
2018-02-05T07:14:58.129Z,27.13
2018-02-05T07:17:24.624Z,28.87
2018-02-05T07:19:51.194Z,26.00
2018-02-05T07:22:17.587Z,28.77
2018-02-05T07:24:44.249Z,22.25
2018-02-05T07:27:11.146Z,23.80
2018-02-05T07:29:37.663Z,23.33
2018-02-05T07:32:04.566Z,23.80
2018-02-05T07:34:31.664Z,25.75
2018-02-05T07:36:58.133Z,26.40
2018-02-05T07:39:24.541Z,25.77
2018-02-05T07:41:51.523Z,24.90
2018-02-05T07:44:18.163Z,25.40
2018-02-05T07:46:44.615Z,23.95
2018-02-05T07:49:11.131Z,26.70
2018-02-05T07:51:38.519Z,24.87
2018-02-05T07:54:05.129Z,24.87
2018-02-05T07:56:31.723Z,25.67
2018-02-05T07:58:58.213Z,26.05
2018-02-05T08:01:24.835Z,26.58
2018-02-05T08:03:51.327Z,22.98
2018-02-05T08:06:18.399Z,26.87
2018-02-05T08:08:45.016Z,26.27
2018-02-05T08:11:11.543Z,25.10
2018-02-05T08:13:38.319Z,26.20
2018-02-05T08:16:04.888Z,24.03
2018-02-05T08:18:32.500Z,23.73
2018-02-05T08:20:59.163Z,23.90
2018-02-05T08:23:25.563Z,24.57
2018-02-05T08:25:52.226Z,22.60
2018-02-05T08:28:18.773Z,22.00
2018-02-05T08:30:45.323Z,23.37
2018-02-05T08:33:11.817Z,23.33
2018-02-05T08:35:38.423Z,25.23
2018-02-05T08:38:04.965Z,25.20
2018-02-05T08:40:31.351Z,24.63
2018-02-05T08:42:58.060Z,24.37
2018-02-05T08:45:24.510Z,27.23
2018-02-05T08:47:51.079Z,24.70
2018-02-05T08:50:17.623Z,20.23
2018-02-05T08:52:44.256Z,18.37
2018-02-05T08:55:10.964Z,20.90
2018-02-05T08:57:37.796Z,23.80
2018-02-05T09:00:04.647Z,25.93
2018-02-05T09:02:31.179Z,25.00
2018-02-05T09:04:57.728Z,21.80
2018-02-05T09:07:24.251Z,24.90
2018-02-05T09:09:51.662Z,23.13
2018-02-05T09:12:18.300Z,23.83
2018-02-05T09:14:44.787Z,22.43
2018-02-05T09:17:11.685Z,22.67
2018-02-05T09:19:38.273Z,22.20
2018-02-05T09:22:04.763Z,20.40
2018-02-05T09:24:31.212Z,22.83
2018-02-05T09:26:57.912Z,22.63
2018-02-05T09:29:24.981Z,22.50
2018-02-05T09:31:51.495Z,22.67
2018-02-05T09:34:18.761Z,20.97
2018-02-05T09:36:45.800Z,22.10
2018-02-05T09:39:12.290Z,23.33
2018-02-05T09:41:38.819Z,20.00
2018-02-05T09:44:05.400Z,20.27
2018-02-05T09:46:31.852Z,19.17
2018-02-05T09:48:58.411Z,18.87
2018-02-05T09:51:24.976Z,20.13
2018-02-05T09:53:51.576Z,17.90
2018-02-05T09:56:18.031Z,16.43
2018-02-05T09:58:44.886Z,17.87
2018-02-05T10:01:11.818Z,19.43
2018-02-05T10:03:38.239Z,19.83
2018-02-05T10:06:04.775Z,18.73
2018-02-05T10:08:31.171Z,18.33
2018-02-05T10:10:58.162Z,17.83
2018-02-05T10:13:24.688Z,17.17
2018-02-05T10:15:51.283Z,17.67
2018-02-05T10:18:17.817Z,18.60
2018-02-05T10:20:44.304Z,18.53
2018-02-05T10:23:10.831Z,17.07
2018-02-05T10:25:37.238Z,17.10
2018-02-05T10:28:04.560Z,14.00
2018-02-05T10:30:31.044Z,17.17
2018-02-05T10:32:57.612Z,18.50
2018-02-05T10:35:24.192Z,18.80
2018-02-05T10:37:51.331Z,19.03
2018-02-05T10:40:17.836Z,19.53
2018-02-05T10:42:44.370Z,16.27
2018-02-05T10:45:11.183Z,17.83
2018-02-05T10:47:37.744Z,16.77
2018-02-05T10:50:04.341Z,17.47
2018-02-05T10:52:30.856Z,18.37
2018-02-05T10:54:57.336Z,16.90
2018-02-05T10:57:23.917Z,16.57
2018-02-05T10:59:50.384Z,15.73
2018-02-05T11:02:16.943Z,14.80
2018-02-05T11:04:43.447Z,15.83
2018-02-05T11:07:10.016Z,15.27
2018-02-05T11:09:36.515Z,16.93
2018-02-05T11:12:03.483Z,14.63
2018-02-05T11:14:30.537Z,13.80
2018-02-05T11:16:57.135Z,12.17
2018-02-05T11:19:24.281Z,10.23
2018-02-05T11:21:50.727Z,9.60
2018-02-05T11:24:17.615Z,11.30
2018-02-05T11:26:44.091Z,9.70
2018-02-05T11:29:10.703Z,9.00
2018-02-05T11:31:37.215Z,9.03
2018-02-05T11:34:04.032Z,8.10
2018-02-05T11:36:31.486Z,8.80
2018-02-05T11:38:58.047Z,9.25
2018-02-05T11:41:24.563Z,8.75
2018-02-05T11:43:51.163Z,9.68
2018-02-05T11:46:17.679Z,8.30
2018-02-05T11:48:44.219Z,9.60
2018-02-05T11:51:10.708Z,7.80
2018-02-05T11:53:37.319Z,7.65
2018-02-05T11:56:03.856Z,7.55
2018-02-05T11:58:30.321Z,13.02
2018-02-05T12:00:57.175Z,7.95
2018-02-05T12:03:23.723Z,9.05
2018-02-05T12:05:50.292Z,8.93
2018-02-05T12:08:16.764Z,9.93
2018-02-05T12:10:43.544Z,9.35
2018-02-05T12:13:10.195Z,8.23
2018-02-05T12:15:36.684Z,10.93
2018-02-05T12:18:03.232Z,9.02
2018-02-05T12:20:29.788Z,8.90
2018-02-05T12:22:56.275Z,8.02
2018-02-05T12:25:22.807Z,8.77
2018-02-05T12:27:49.199Z,7.55
2018-02-05T12:30:16.586Z,5.55
2018-02-05T12:32:43.024Z,5.93
2018-02-05T12:35:09.477Z,5.32
2018-02-05T12:37:36.218Z,6.45
2018-02-05T12:40:02.715Z,6.62
2018-02-05T12:42:29.131Z,5.32
2018-02-05T12:44:55.560Z,5.47
2018-02-05T12:47:22.915Z,10.30
2018-02-05T12:49:49.465Z,5.87
2018-02-05T12:52:15.919Z,5.55
2018-02-05T12:54:42.883Z,5.47
2018-02-05T12:57:09.349Z,6.10
2018-02-05T12:59:35.881Z,6.80
2018-02-05T13:02:06.295Z,7.00
2018-02-05T13:04:36.776Z,6.97
2018-02-05T13:07:03.462Z,6.85
2018-02-05T13:09:29.957Z,6.15
2018-02-05T13:11:56.495Z,5.60
2018-02-05T13:14:23.255Z,6.30
2018-02-05T13:16:50.481Z,9.85
2018-02-05T13:19:17.367Z,6.12
2018-02-05T13:21:44.171Z,13.10
2018-02-05T13:24:10.699Z,7.30
2018-02-05T13:26:37.255Z,5.57
2018-02-05T13:29:03.864Z,4.70
2018-02-05T13:31:30.625Z,5.93
2018-02-05T13:33:57.155Z,5.80
2018-02-05T13:36:23.784Z,6.47
2018-02-05T13:38:50.312Z,5.32
2018-02-05T13:41:16.775Z,6.60
2018-02-05T13:43:43.296Z,7.05
2018-02-05T13:46:10.226Z,5.32
2018-02-05T13:48:36.722Z,6.40
2018-02-05T13:51:03.332Z,5.37
2018-02-05T13:53:29.802Z,7.05
2018-02-05T13:55:56.263Z,6.30
2018-02-05T13:58:22.855Z,6.35
2018-02-05T14:00:49.431Z,5.53
2018-02-05T14:03:15.891Z,6.00
2018-02-05T14:05:42.432Z,5.15
2018-02-05T14:08:09.008Z,5.10
2018-02-05T14:10:35.563Z,5.40
2018-02-05T14:13:02.072Z,5.53
2018-02-05T14:15:28.569Z,5.32
2018-02-05T14:17:55.115Z,5.55
2018-02-05T14:20:21.630Z,7.00
2018-02-05T14:22:48.247Z,5.55
2018-02-05T14:25:15.687Z,5.75
2018-02-05T14:27:44.111Z,8.05
2018-02-05T14:30:10.590Z,5.90
2018-02-05T14:32:37.120Z,6.93
2018-02-05T14:35:03.668Z,5.97
2018-02-05T14:37:30.206Z,5.57
2018-02-05T14:39:56.696Z,12.65
2018-02-05T14:42:23.103Z,7.50
2018-02-05T14:44:49.780Z,6.47
2018-02-05T14:47:16.293Z,8.88
2018-02-05T14:49:42.876Z,6.90
2018-02-05T14:52:09.394Z,8.48
2018-02-05T14:54:35.895Z,6.00
2018-02-05T14:57:02.515Z,6.70
2018-02-05T14:59:28.887Z,10.55
2018-02-05T15:01:55.621Z,6.70
2018-02-05T15:04:22.031Z,6.68
2018-02-05T15:06:48.616Z,8.30
2018-02-05T15:09:15.168Z,11.48
2018-02-05T15:11:41.633Z,9.20
2018-02-05T15:14:08.222Z,9.55
2018-02-05T15:16:34.991Z,9.43
2018-02-05T15:19:01.948Z,7.60
2018-02-05T15:21:28.391Z,10.30
2018-02-05T15:23:55.248Z,10.70
2018-02-05T15:26:21.759Z,9.77
2018-02-05T15:28:48.602Z,7.72
2018-02-05T15:31:15.189Z,8.40
2018-02-05T15:33:41.679Z,9.77
2018-02-05T15:36:08.283Z,11.60
2018-02-05T15:38:35.081Z,11.63
2018-02-05T15:41:01.610Z,12.85
2018-02-05T15:43:28.004Z,14.73
2018-02-05T15:45:54.708Z,8.75
2018-02-05T15:48:21.220Z,8.02
2018-02-05T15:50:47.788Z,10.88
2018-02-05T15:53:14.627Z,18.17
2018-02-05T15:55:42.083Z,16.92
2018-02-05T15:58:09.181Z,17.87
2018-02-05T16:00:36.036Z,18.08
2018-02-05T16:03:02.875Z,14.05
2018-02-05T16:05:29.772Z,21.60
2018-02-05T16:07:56.241Z,18.73
2018-02-05T16:10:22.695Z,22.25
2018-02-05T16:12:49.611Z,20.20
2018-02-05T16:15:16.236Z,22.62
2018-02-05T16:17:43.665Z,24.20
2018-02-05T16:20:10.147Z,19.45
2018-02-05T16:22:36.721Z,17.17
2018-02-05T16:25:03.268Z,20.33
2018-02-05T16:27:30.088Z,19.10
2018-02-05T16:29:56.595Z,25.27
2018-02-05T16:32:23.232Z,23.92
2018-02-05T16:34:50.356Z,26.87
2018-02-05T16:37:16.820Z,26.23
2018-02-05T16:39:43.421Z,27.67
2018-02-05T16:42:09.956Z,23.20
2018-02-05T16:44:36.500Z,20.00
2018-02-05T16:47:02.967Z,27.15
2018-02-05T16:49:30.655Z,37.97
2018-02-05T16:51:57.420Z,38.20
2018-02-05T16:54:24.262Z,62.10
2018-02-05T16:56:51.254Z,68.57
2018-02-05T16:59:17.885Z,78.03
2018-02-05T17:01:44.363Z,84.25
2018-02-05T17:04:10.957Z,81.15
2018-02-05T17:06:37.408Z,49.05
2018-02-05T17:09:08.530Z,54.15
2018-02-05T17:11:35.129Z,30.70
2018-02-05T17:14:01.965Z,31.92
2018-02-05T17:16:28.508Z,22.92
2018-02-05T17:18:55.281Z,26.70
2018-02-05T17:21:21.823Z,25.30
2018-02-05T17:23:48.375Z,28.45
2018-02-05T17:26:14.909Z,33.10
2018-02-05T17:28:41.532Z,28.80
2018-02-05T17:31:07.979Z,33.70
2018-02-05T17:33:34.498Z,33.67
2018-02-05T17:36:01.036Z,31.05
2018-02-05T17:38:27.577Z,32.25
2018-02-05T17:40:54.107Z,33.80
2018-02-05T17:43:20.698Z,30.80
2018-02-05T17:45:47.515Z,34.95
2018-02-05T17:48:14.293Z,33.83
2018-02-05T17:50:40.852Z,40.65
2018-02-05T17:53:07.392Z,30.48
2018-02-05T17:55:33.928Z,31.17
2018-02-05T17:58:00.461Z,35.33
2018-02-05T18:00:27.043Z,33.38
2018-02-05T18:02:53.649Z,36.50
2018-02-05T18:05:20.141Z,39.75
2018-02-05T18:07:46.652Z,36.90
2018-02-05T18:10:13.143Z,41.88
2018-02-05T18:12:39.676Z,39.95
2018-02-05T18:15:07.113Z,29.08
2018-02-05T18:17:33.984Z,27.00
2018-02-05T18:20:00.582Z,33.40
2018-02-05T18:22:27.660Z,31.65
2018-02-05T18:24:54.262Z,26.87
2018-02-05T18:27:20.725Z,24.58
2018-02-05T18:29:47.167Z,19.50
2018-02-05T18:32:13.548Z,19.30
2018-02-05T18:34:40.342Z,18.98
2018-02-05T18:37:06.900Z,17.52
2018-02-05T18:39:33.729Z,23.73
2018-02-05T18:42:00.544Z,29.55
2018-02-05T18:44:27.103Z,21.00
2018-02-05T18:46:53.625Z,17.65
2018-02-05T18:49:20.083Z,18.33
2018-02-05T18:51:47.057Z,15.70
2018-02-05T18:54:13.606Z,16.37
2018-02-05T18:56:43.784Z,15.20
2018-02-05T18:59:10.168Z,15.25
2018-02-05T19:01:36.563Z,20.60
2018-02-05T19:04:03.388Z,21.62
2018-02-05T19:06:29.880Z,20.83
2018-02-05T19:08:56.493Z,18.52
2018-02-05T19:11:22.981Z,21.65
2018-02-05T19:13:49.515Z,19.70
2018-02-05T19:16:15.918Z,17.50
2018-02-05T19:18:42.892Z,16.12
2018-02-05T19:21:09.424Z,18.77
2018-02-05T19:23:36.318Z,18.17
2018-02-05T19:26:03.163Z,20.20
2018-02-05T19:28:31.897Z,17.40
2018-02-05T19:30:58.405Z,17.00
2018-02-05T19:33:24.927Z,18.98
2018-02-05T19:35:51.412Z,19.20
2018-02-05T19:38:17.925Z,19.35
2018-02-05T19:40:44.584Z,19.50
2018-02-05T19:43:11.352Z,17.17
2018-02-05T19:45:37.839Z,16.75
2018-02-05T19:48:04.697Z,15.93
2018-02-05T19:50:31.276Z,16.42
2018-02-05T19:52:57.748Z,21.20
2018-02-05T19:55:24.375Z,19.50
2018-02-05T19:57:50.906Z,17.95
2018-02-05T20:00:17.368Z,25.37
2018-02-05T20:02:43.879Z,19.75
2018-02-05T20:05:10.440Z,20.88
2018-02-05T20:07:36.975Z,22.55
2018-02-05T20:10:03.599Z,24.87
2018-02-05T20:12:30.007Z,26.50
2018-02-05T20:14:57.824Z,24.75
2018-02-05T20:17:25.919Z,27.05
2018-02-05T20:19:54.176Z,27.05
2018-02-05T20:22:20.806Z,34.13
2018-02-05T20:24:47.412Z,30.95
2018-02-05T20:27:13.910Z,29.77
2018-02-05T20:29:40.399Z,33.28
2018-02-05T20:32:06.955Z,27.98
2018-02-05T20:34:34.440Z,32.25
2018-02-05T20:37:01.677Z,35.13
2018-02-05T20:39:28.415Z,36.72
2018-02-05T20:41:54.948Z,38.22
2018-02-05T20:44:21.450Z,38.45
2018-02-05T20:46:47.986Z,36.28
2018-02-05T20:49:15.027Z,41.83
2018-02-05T20:51:41.673Z,38.60
2018-02-05T20:54:08.196Z,52.62
2018-02-05T20:56:35.032Z,77.20
2018-02-05T20:59:01.591Z,101.22
2018-02-05T21:01:28.108Z,98.37
2018-02-05T21:03:54.510Z,87.10
2018-02-05T21:06:21.519Z,91.72
2018-02-05T21:08:48.011Z,82.82
2018-02-05T21:11:14.566Z,96.87
2018-02-05T21:13:41.398Z,91.80
2018-02-05T21:16:07.921Z,102.12
2018-02-05T21:18:34.529Z,100.07
2018-02-05T21:21:00.976Z,92.57
2018-02-05T21:23:27.646Z,90.78
2018-02-05T21:25:54.092Z,90.70
2018-02-05T21:28:20.604Z,77.53
2018-02-05T21:30:47.204Z,77.00
2018-02-05T21:33:14.057Z,82.37
2018-02-05T21:35:40.604Z,78.25
2018-02-05T21:38:07.108Z,69.12
2018-02-05T21:40:33.656Z,69.72
2018-02-05T21:43:00.170Z,69.78
2018-02-05T21:45:26.668Z,63.15
2018-02-05T21:47:53.204Z,65.25
2018-02-05T21:50:21.903Z,70.12
2018-02-05T21:52:48.427Z,82.78
2018-02-05T21:55:15.032Z,103.43
2018-02-05T21:57:41.595Z,93.15
2018-02-05T22:00:08.084Z,88.57
2018-02-05T22:02:34.623Z,104.57
2018-02-05T22:05:01.079Z,98.80
2018-02-05T22:07:27.639Z,97.70
2018-02-05T22:09:54.240Z,111.28
2018-02-05T22:12:20.695Z,92.10
2018-02-05T22:14:47.632Z,89.97
2018-02-05T22:17:14.078Z,83.45
2018-02-05T22:19:40.607Z,100.57
2018-02-05T22:22:07.002Z,95.65
2018-02-05T22:24:34.044Z,89.93
2018-02-05T22:27:00.575Z,101.72
2018-02-05T22:29:27.971Z,105.07
2018-02-05T22:31:54.787Z,92.57
2018-02-05T22:34:21.416Z,91.43
2018-02-05T22:36:47.898Z,95.38
2018-02-05T22:39:14.430Z,94.55
2018-02-05T22:41:41.281Z,91.72
2018-02-05T22:44:07.821Z,90.75
2018-02-05T22:46:34.343Z,97.43
2018-02-05T22:49:00.836Z,140.55
2018-02-05T22:51:27.792Z,135.15
2018-02-05T22:53:54.242Z,106.10
2018-02-05T22:56:20.912Z,102.35
2018-02-05T22:58:47.323Z,107.32
2018-02-05T23:01:13.851Z,93.47
2018-02-05T23:03:40.388Z,96.63
2018-02-05T23:06:06.916Z,102.22
2018-02-05T23:08:33.507Z,89.65
2018-02-05T23:11:00.057Z,91.28
2018-02-05T23:13:26.555Z,87.75
2018-02-05T23:15:53.076Z,84.78
2018-02-05T23:18:19.609Z,100.68
2018-02-05T23:20:46.162Z,92.03
2018-02-05T23:23:12.984Z,89.35
2018-02-05T23:25:39.561Z,89.10
2018-02-05T23:28:06.356Z,88.62
2018-02-05T23:30:32.995Z,79.97
2018-02-05T23:33:00.408Z,84.28
2018-02-05T23:35:26.889Z,83.18
2018-02-05T23:37:53.435Z,81.35
2018-02-05T23:40:20.016Z,87.93
2018-02-05T23:42:46.551Z,92.10
2018-02-05T23:45:13.036Z,81.60
2018-02-05T23:47:39.607Z,76.55
2018-02-05T23:50:06.395Z,77.28
2018-02-05T23:52:32.973Z,76.12
2018-02-05T23:54:59.524Z,72.78
2018-02-05T23:57:26.937Z,76.87
2018-02-05T23:59:53.519Z,75.07
